createdAt,value
2023-05-13T00:00:57.492Z,995.32
2023-05-13T00:01:57.444Z,995.25
2023-05-13T00:02:57.561Z,995.33
2023-05-13T00:03:57.554Z,995.31
2023-05-13T00:04:57.493Z,995.32
2023-05-13T00:05:57.548Z,995.34
2023-05-13T00:06:57.459Z,995.30
2023-05-13T00:07:56.647Z,995.25
2023-05-13T00:08:57.597Z,995.29
2023-05-13T00:09:57.446Z,995.32
2023-05-13T00:10:56.587Z,995.28
2023-05-13T00:11:56.617Z,995.27
2023-05-13T00:12:56.610Z,995.28
2023-05-13T00:13:56.602Z,995.27
2023-05-13T00:14:56.725Z,995.31
2023-05-13T00:15:56.818Z,995.31
2023-05-13T00:16:56.814Z,995.28
2023-05-13T00:17:56.890Z,995.26
2023-05-13T00:18:56.942Z,995.31
2023-05-13T00:19:56.492Z,995.27
2023-05-13T00:20:56.993Z,995.24
2023-05-13T00:21:57.028Z,995.25
2023-05-13T00:22:57.054Z,995.26
2023-05-13T00:23:57.120Z,995.27
2023-05-13T00:24:57.170Z,995.25
2023-05-13T00:25:57.183Z,995.23
2023-05-13T00:26:57.265Z,995.25
2023-05-13T00:27:56.839Z,995.27
2023-05-13T00:28:57.151Z,995.27
2023-05-13T00:29:57.305Z,995.26
2023-05-13T00:30:57.211Z,995.27
2023-05-13T00:31:57.261Z,995.29
2023-05-13T00:32:56.912Z,995.27
2023-05-13T00:33:57.197Z,995.28
2023-05-13T00:34:57.084Z,995.32
2023-05-13T00:35:56.265Z,995.32
2023-05-13T00:36:57.141Z,995.35
2023-05-13T00:37:57.059Z,995.36
2023-05-13T00:38:56.938Z,995.35
2023-05-13T00:39:56.250Z,995.33
2023-05-13T00:40:57.021Z,995.37
2023-05-13T00:41:56.902Z,995.34
2023-05-13T00:42:56.167Z,995.34
2023-05-13T00:43:56.164Z,995.36
2023-05-13T00:44:56.149Z,995.36
2023-05-13T00:45:56.236Z,995.35
2023-05-13T00:46:56.150Z,995.33
2023-05-13T00:47:56.118Z,995.33
2023-05-13T00:48:56.097Z,995.34
2023-05-13T00:49:56.129Z,995.33
2023-05-13T00:50:56.069Z,995.35
2023-05-13T00:51:56.218Z,995.37
2023-05-13T00:52:56.143Z,995.34
2023-05-13T00:53:56.085Z,995.32
2023-05-13T00:54:56.060Z,995.34
2023-05-13T00:55:56.152Z,995.33
2023-05-13T00:56:56.167Z,995.29
2023-05-13T00:57:56.045Z,995.34
2023-05-13T00:58:56.190Z,995.29
2023-05-13T00:59:56.163Z,995.30
2023-05-13T01:00:56.200Z,995.25
2023-05-13T01:01:56.216Z,995.32
2023-05-13T01:02:56.261Z,995.30
2023-05-13T01:03:56.178Z,995.34
2023-05-13T01:04:56.149Z,995.34
2023-05-13T01:05:55.916Z,995.33
2023-05-13T01:06:56.162Z,995.34
2023-05-13T01:07:56.001Z,995.33
2023-05-13T01:08:56.159Z,995.30
2023-05-13T01:09:56.172Z,995.34
2023-05-13T01:10:56.250Z,995.32
2023-05-13T01:11:56.272Z,995.33
2023-05-13T01:12:55.777Z,995.33
2023-05-13T01:13:55.835Z,995.34
2023-05-13T01:14:56.156Z,995.32
2023-05-13T01:15:55.747Z,995.33
2023-05-13T01:16:56.238Z,995.32
2023-05-13T01:17:56.185Z,995.33
2023-05-13T01:18:56.193Z,995.37
2023-05-13T01:19:56.147Z,995.36
2023-05-13T01:20:56.146Z,995.35
2023-05-13T01:21:56.134Z,995.38
2023-05-13T01:22:56.148Z,995.35
2023-05-13T01:23:56.253Z,995.33
2023-05-13T01:24:56.132Z,995.33
2023-05-13T01:25:55.651Z,995.31
2023-05-13T01:26:55.618Z,995.33
2023-05-13T01:27:55.572Z,995.32
2023-05-13T01:28:55.668Z,995.29
2023-05-13T01:29:55.733Z,995.34
2023-05-13T01:30:55.755Z,995.31
2023-05-13T01:31:55.786Z,995.31
2023-05-13T01:32:55.845Z,995.31
2023-05-13T01:33:55.853Z,995.34
2023-05-13T01:34:55.926Z,995.31
2023-05-13T01:35:55.945Z,995.28
2023-05-13T01:36:55.968Z,995.31
2023-05-13T01:37:56.010Z,995.29
2023-05-13T01:38:56.075Z,995.28
2023-05-13T01:39:56.093Z,995.28
2023-05-13T01:40:56.119Z,995.28
2023-05-13T01:41:56.269Z,995.30
2023-05-13T01:42:56.167Z,995.26
2023-05-13T01:43:56.153Z,995.32
2023-05-13T01:44:55.834Z,995.32
2023-05-13T01:45:56.290Z,995.34
2023-05-13T01:46:56.226Z,995.33
2023-05-13T01:47:56.168Z,995.35
2023-05-13T01:48:56.118Z,995.35
2023-05-13T01:49:56.047Z,995.42
2023-05-13T01:50:56.140Z,995.36
2023-05-13T01:51:55.281Z,995.38
2023-05-13T01:52:56.009Z,995.39
2023-05-13T01:53:56.140Z,995.39
2023-05-13T01:54:56.046Z,995.42
2023-05-13T01:55:55.228Z,995.34
2023-05-13T01:56:56.112Z,995.41
2023-05-13T01:57:56.029Z,995.38
2023-05-13T01:58:55.939Z,995.33
2023-05-13T01:59:56.079Z,995.34
2023-05-13T02:00:56.010Z,995.31
2023-05-13T02:01:55.254Z,995.28
2023-05-13T02:02:56.158Z,995.30
2023-05-13T02:03:55.999Z,995.29
2023-05-13T02:04:55.860Z,995.26
2023-05-13T02:05:55.126Z,995.23
2023-05-13T02:06:55.114Z,995.30
2023-05-13T02:07:55.085Z,995.29
2023-05-13T02:08:55.197Z,995.28
2023-05-13T02:09:55.247Z,995.32
2023-05-13T02:10:55.089Z,995.33
2023-05-13T02:11:55.317Z,995.34
2023-05-13T02:12:55.353Z,995.40
2023-05-13T02:13:55.021Z,995.41
2023-05-13T02:14:55.516Z,995.36
2023-05-13T02:15:55.097Z,995.37
2023-05-13T02:16:55.611Z,995.39
2023-05-13T02:17:55.870Z,995.36
2023-05-13T02:18:54.979Z,995.38
2023-05-13T02:19:55.609Z,995.41
2023-05-13T02:20:54.967Z,995.37
2023-05-13T02:21:55.704Z,995.33
2023-05-13T02:22:55.679Z,995.34
2023-05-13T02:23:54.874Z,995.35
2023-05-13T02:24:55.726Z,995.37
2023-05-13T02:25:55.641Z,995.33
2023-05-13T02:26:54.837Z,995.35
2023-05-13T02:27:55.951Z,995.31
2023-05-13T02:28:55.616Z,995.32
2023-05-13T02:29:55.518Z,995.34
2023-05-13T02:30:55.668Z,995.38
2023-05-13T02:31:54.984Z,995.36
2023-05-13T02:32:55.559Z,995.41
2023-05-13T02:33:55.663Z,995.43
2023-05-13T02:34:55.573Z,995.44
2023-05-13T02:35:54.710Z,995.44
2023-05-13T02:36:55.640Z,995.48
2023-05-13T02:37:54.839Z,995.42
2023-05-13T02:38:55.431Z,995.45
2023-05-13T02:39:55.595Z,995.43
2023-05-13T02:40:54.676Z,995.40
2023-05-13T02:41:54.639Z,995.41
2023-05-13T02:42:54.664Z,995.42
2023-05-13T02:43:55.449Z,995.38
2023-05-13T02:44:54.596Z,995.38
2023-05-13T02:45:54.672Z,995.40
2023-05-13T02:46:54.676Z,995.37
2023-05-13T02:47:54.713Z,995.40
2023-05-13T02:48:54.758Z,995.37
2023-05-13T02:49:54.780Z,995.35
2023-05-13T02:50:54.808Z,995.32
2023-05-13T02:51:54.547Z,995.33
2023-05-13T02:52:54.898Z,995.33
2023-05-13T02:53:54.503Z,995.33
2023-05-13T02:54:55.004Z,995.33
2023-05-13T02:55:55.000Z,995.31
2023-05-13T02:56:55.033Z,995.30
2023-05-13T02:57:54.412Z,995.27
2023-05-13T02:58:54.401Z,995.26
2023-05-13T02:59:54.836Z,995.29
2023-05-13T03:00:55.175Z,995.29
2023-05-13T03:01:54.573Z,995.29
2023-05-13T03:02:54.466Z,995.32
2023-05-13T03:03:55.059Z,995.28
2023-05-13T03:04:54.984Z,995.34
2023-05-13T03:05:55.136Z,995.36
2023-05-13T03:06:54.317Z,995.34
2023-05-13T03:07:55.194Z,995.32
2023-05-13T03:08:55.130Z,995.27
2023-05-13T03:09:55.009Z,995.31
2023-05-13T03:10:54.834Z,995.30
2023-05-13T03:11:54.583Z,995.30
2023-05-13T03:12:54.973Z,995.34
2023-05-13T03:13:54.197Z,995.32
2023-05-13T03:14:55.037Z,995.31
2023-05-13T03:15:54.237Z,995.31
2023-05-13T03:16:54.837Z,995.33
2023-05-13T03:17:54.140Z,995.33
2023-05-13T03:18:54.196Z,995.34
2023-05-13T03:19:54.186Z,995.37
2023-05-13T03:20:54.121Z,995.36
2023-05-13T03:21:54.121Z,995.35
2023-05-13T03:22:54.080Z,995.38
2023-05-13T03:23:54.043Z,995.40
2023-05-13T03:24:54.065Z,995.37
2023-05-13T03:25:54.065Z,995.39
2023-05-13T03:26:54.106Z,995.39
2023-05-13T03:27:53.980Z,995.33
2023-05-13T03:28:54.235Z,995.36
2023-05-13T03:29:54.115Z,995.39
2023-05-13T03:30:54.024Z,995.34
2023-05-13T03:31:54.006Z,995.39
2023-05-13T03:32:53.997Z,995.39
2023-05-13T03:33:53.912Z,995.38
2023-05-13T03:34:53.942Z,995.37
2023-05-13T03:35:53.901Z,995.43
2023-05-13T03:36:53.866Z,995.49
2023-05-13T03:37:54.105Z,995.48
2023-05-13T03:38:53.855Z,995.49
2023-05-13T03:39:53.863Z,995.47
2023-05-13T03:40:53.813Z,995.44
2023-05-13T03:41:53.807Z,995.49
2023-05-13T03:42:54.100Z,995.52
2023-05-13T03:43:53.804Z,995.47
2023-05-13T03:44:53.804Z,995.50
2023-05-13T03:45:54.094Z,995.53
2023-05-13T03:46:53.761Z,995.55
2023-05-13T03:47:53.766Z,995.51
2023-05-13T03:48:54.116Z,995.51
2023-05-13T03:49:53.692Z,995.48
2023-05-13T03:50:53.698Z,995.49
2023-05-13T03:51:53.669Z,995.49
2023-05-13T03:52:53.686Z,995.50
2023-05-13T03:53:54.035Z,995.49
2023-05-13T03:54:53.647Z,995.50
2023-05-13T03:55:54.124Z,995.48
2023-05-13T03:56:53.623Z,995.47
2023-05-13T03:57:54.099Z,995.49
2023-05-13T03:58:54.106Z,995.48
2023-05-13T03:59:53.604Z,995.51
2023-05-13T04:00:53.569Z,995.49
2023-05-13T04:01:53.689Z,995.53
2023-05-13T04:02:53.632Z,995.48
2023-05-13T04:03:53.657Z,995.50
2023-05-13T04:04:53.712Z,995.53
2023-05-13T04:05:53.496Z,995.52
2023-05-13T04:06:53.795Z,995.52
2023-05-13T04:07:53.512Z,995.49
2023-05-13T04:08:53.471Z,995.45
2023-05-13T04:09:53.451Z,995.49
2023-05-13T04:10:53.925Z,995.55
2023-05-13T04:11:53.463Z,995.52
2023-05-13T04:12:53.451Z,995.56
2023-05-13T04:13:53.400Z,995.55
2023-05-13T04:14:53.397Z,995.62
2023-05-13T04:15:54.206Z,995.59
2023-05-13T04:16:54.128Z,995.63
2023-05-13T04:17:53.392Z,995.61
2023-05-13T04:18:53.442Z,995.62
2023-05-13T04:19:53.323Z,995.63
2023-05-13T04:20:53.304Z,995.60
2023-05-13T04:21:54.120Z,995.56
2023-05-13T04:22:53.314Z,995.61
2023-05-13T04:23:53.271Z,995.57
2023-05-13T04:24:53.262Z,995.58
2023-05-13T04:25:53.295Z,995.62
2023-05-13T04:26:54.018Z,995.64
2023-05-13T04:27:53.230Z,995.63
2023-05-13T04:28:53.233Z,995.67
2023-05-13T04:29:53.209Z,995.58
2023-05-13T04:30:53.876Z,995.59
2023-05-13T04:31:54.104Z,995.64
2023-05-13T04:32:54.009Z,995.61
2023-05-13T04:33:53.175Z,995.68
2023-05-13T04:34:54.073Z,995.64
2023-05-13T04:35:53.176Z,995.68
2023-05-13T04:36:53.849Z,995.69
2023-05-13T04:37:53.985Z,995.68
2023-05-13T04:38:53.917Z,995.67
2023-05-13T04:39:53.048Z,995.68
2023-05-13T04:40:53.070Z,995.71
2023-05-13T04:41:53.089Z,995.68
2023-05-13T04:42:53.019Z,995.71
2023-05-13T04:43:53.247Z,995.70
2023-05-13T04:44:53.020Z,995.69
2023-05-13T04:45:53.522Z,995.70
2023-05-13T04:46:53.342Z,995.71
2023-05-13T04:47:53.437Z,995.73
2023-05-13T04:48:52.967Z,995.75
2023-05-13T04:49:52.981Z,995.76
2023-05-13T04:50:52.966Z,995.75
2023-05-13T04:51:52.898Z,995.76
2023-05-13T04:52:52.901Z,995.75
2023-05-13T04:53:53.250Z,995.73
2023-05-13T04:54:52.877Z,995.75
2023-05-13T04:55:52.951Z,995.65
2023-05-13T04:56:52.847Z,995.75
2023-05-13T04:57:52.877Z,995.67
2023-05-13T04:58:52.817Z,995.73
2023-05-13T04:59:53.668Z,995.72
2023-05-13T05:00:52.818Z,995.69
2023-05-13T05:01:53.994Z,995.70
2023-05-13T05:02:53.727Z,995.70
2023-05-13T05:03:53.588Z,995.72
2023-05-13T05:04:53.663Z,995.73
2023-05-13T05:05:52.757Z,995.77
2023-05-13T05:06:52.733Z,995.73
2023-05-13T05:07:52.725Z,995.74
2023-05-13T05:08:52.733Z,995.74
2023-05-13T05:09:52.672Z,995.70
2023-05-13T05:10:53.619Z,995.73
2023-05-13T05:11:52.668Z,995.74
2023-05-13T05:12:52.670Z,995.76
2023-05-13T05:13:52.628Z,995.82
2023-05-13T05:14:53.093Z,995.83
2023-05-13T05:15:53.099Z,995.82
2023-05-13T05:16:52.626Z,995.82
2023-05-13T05:17:53.229Z,995.84
2023-05-13T05:18:52.684Z,995.84
2023-05-13T05:19:53.288Z,995.89
2023-05-13T05:20:52.549Z,995.87
2023-05-13T05:21:52.687Z,995.84
2023-05-13T05:22:52.533Z,995.94
2023-05-13T05:23:52.500Z,995.91
2023-05-13T05:24:52.490Z,995.90
2023-05-13T05:26:04.104Z,995.90
2023-05-13T05:26:53.500Z,995.91
2023-05-13T05:27:52.918Z,995.90
2023-05-13T05:28:52.433Z,995.87
2023-05-13T05:29:52.995Z,995.85
2023-05-13T05:30:53.088Z,995.78
2023-05-13T05:31:52.428Z,995.83
2023-05-13T05:32:53.232Z,995.87
2023-05-13T05:33:53.146Z,995.86
2023-05-13T05:34:53.129Z,995.87
2023-05-13T05:35:52.353Z,995.84
2023-05-13T05:36:52.377Z,995.84
2023-05-13T05:37:53.088Z,995.85
2023-05-13T05:38:53.253Z,995.86
2023-05-13T05:39:53.263Z,995.88
2023-05-13T05:40:52.303Z,995.91
2023-05-13T05:41:52.246Z,995.93
2023-05-13T05:42:52.236Z,995.93
2023-05-13T05:43:53.035Z,995.93
2023-05-13T05:44:52.212Z,995.88
2023-05-13T05:45:53.106Z,995.92
2023-05-13T05:46:52.188Z,995.94
2023-05-13T05:47:53.362Z,995.96
2023-05-13T05:48:53.045Z,995.94
2023-05-13T05:49:52.947Z,995.99
2023-05-13T05:50:52.856Z,995.99
2023-05-13T05:51:52.117Z,996.03
2023-05-13T05:52:52.123Z,995.99
2023-05-13T05:53:52.140Z,996.03
2023-05-13T05:54:52.994Z,996.07
2023-05-13T05:55:53.132Z,996.05
2023-05-13T05:56:52.071Z,996.06
2023-05-13T05:57:52.042Z,996.01
2023-05-13T05:58:52.025Z,995.99
2023-05-13T05:59:52.790Z,995.99
2023-05-13T06:00:52.198Z,995.94
2023-05-13T06:01:51.983Z,995.95
2023-05-13T06:02:52.056Z,995.95
2023-05-13T06:03:54.778Z,995.95
2023-05-13T06:04:52.089Z,995.97
2023-05-13T06:05:52.005Z,995.96
2023-05-13T06:06:51.970Z,995.98
2023-05-13T06:07:51.914Z,996.00
2023-05-13T06:08:51.917Z,996.01
2023-05-13T06:09:51.931Z,995.99
2023-05-13T06:10:52.570Z,995.99
2023-05-13T06:11:51.901Z,996.02
2023-05-13T06:12:51.845Z,995.99
2023-05-13T06:13:51.867Z,995.95
2023-05-13T06:14:51.820Z,995.99
2023-05-13T06:15:51.838Z,995.98
2023-05-13T06:16:53.630Z,995.94
2023-05-13T06:17:51.818Z,995.91
2023-05-13T06:18:52.863Z,995.91
2023-05-13T06:19:52.639Z,995.90
2023-05-13T06:20:51.744Z,995.89
2023-05-13T06:21:52.712Z,995.91
2023-05-13T06:22:51.737Z,995.94
2023-05-13T06:23:52.505Z,995.92
2023-05-13T06:24:52.633Z,995.92
2023-05-13T06:25:52.582Z,995.95
2023-05-13T06:26:52.475Z,995.91
2023-05-13T06:27:51.961Z,995.95
2023-05-13T06:28:52.535Z,995.96
2023-05-13T06:29:52.429Z,995.99
2023-05-13T06:30:51.640Z,996.03
2023-05-13T06:31:52.521Z,995.96
2023-05-13T06:33:01.029Z,995.92
2023-05-13T06:33:53.156Z,995.95
2023-05-13T06:34:54.512Z,995.93
2023-05-13T06:35:51.573Z,995.92
2023-05-13T06:36:52.259Z,995.90
2023-05-13T06:37:51.659Z,995.86
2023-05-13T06:38:51.677Z,995.82
2023-05-13T06:39:51.711Z,995.91
2023-05-13T06:40:51.782Z,995.91
2023-05-13T06:41:51.792Z,995.90
2023-05-13T06:42:51.545Z,995.95
2023-05-13T06:43:51.902Z,995.94
2023-05-13T06:44:51.831Z,995.93
2023-05-13T06:45:51.962Z,995.96
2023-05-13T06:46:52.005Z,995.97
2023-05-13T06:47:52.111Z,996.00
2023-05-13T06:48:51.410Z,996.06
2023-05-13T06:49:51.972Z,995.98
2023-05-13T06:50:52.168Z,996.02
2023-05-13T06:51:51.359Z,996.04
2023-05-13T06:52:51.346Z,996.07
2023-05-13T06:53:52.181Z,996.07
2023-05-13T06:54:52.097Z,996.06
2023-05-13T06:55:51.430Z,996.01
2023-05-13T06:56:52.157Z,996.00
2023-05-13T06:57:52.062Z,995.98
2023-05-13T06:58:52.182Z,995.98
2023-05-13T06:59:52.122Z,996.01
2023-05-13T07:00:51.295Z,995.99
2023-05-13T07:01:52.185Z,995.98
2023-05-13T07:02:52.149Z,995.99
2023-05-13T07:03:52.044Z,996.02
2023-05-13T07:04:52.767Z,996.01
2023-05-13T07:05:51.984Z,995.98
2023-05-13T07:06:51.830Z,996.07
2023-05-13T07:07:51.131Z,996.02
2023-05-13T07:08:52.029Z,996.03
2023-05-13T07:09:51.933Z,996.03
2023-05-13T07:10:51.089Z,996.01
2023-05-13T07:11:51.953Z,996.03
2023-05-13T07:12:51.904Z,996.04
2023-05-13T07:13:51.088Z,996.03
2023-05-13T07:14:51.073Z,996.02
2023-05-13T07:15:51.124Z,995.99
2023-05-13T07:16:51.181Z,996.02
2023-05-13T07:17:51.299Z,996.07
2023-05-13T07:18:51.298Z,995.96
2023-05-13T07:19:51.335Z,996.03
2023-05-13T07:20:51.314Z,996.02
2023-05-13T07:21:50.950Z,996.04
2023-05-13T07:22:52.403Z,996.00
2023-05-13T07:23:51.467Z,996.00
2023-05-13T07:24:51.545Z,995.99
2023-05-13T07:25:51.565Z,995.99
2023-05-13T07:26:51.786Z,995.97
2023-05-13T07:27:51.640Z,995.99
2023-05-13T07:28:50.847Z,995.99
2023-05-13T07:29:51.770Z,995.98
2023-05-13T07:30:51.757Z,995.96
2023-05-13T07:31:51.136Z,995.94
2023-05-13T07:32:53.684Z,995.95
2023-05-13T07:33:51.705Z,995.90
2023-05-13T07:34:51.573Z,995.87
2023-05-13T07:35:51.743Z,995.86
2023-05-13T07:36:51.633Z,995.90
2023-05-13T07:37:51.554Z,995.87
2023-05-13T07:38:50.862Z,995.88
2023-05-13T07:39:51.606Z,995.90
2023-05-13T07:40:51.654Z,995.89
2023-05-13T07:41:50.795Z,995.84
2023-05-13T07:42:51.600Z,995.83
2023-05-13T07:43:50.820Z,995.82
2023-05-13T07:44:51.375Z,995.84
2023-05-13T07:45:50.835Z,995.83
2023-05-13T07:46:51.489Z,995.82
2023-05-13T07:47:50.658Z,995.77
2023-05-13T07:48:51.032Z,995.76
2023-05-13T07:49:50.610Z,995.75
2023-05-13T07:50:50.677Z,995.76
2023-05-13T07:51:50.622Z,995.79
2023-05-13T07:52:50.658Z,995.75
2023-05-13T07:53:50.690Z,995.79
2023-05-13T07:54:50.731Z,995.74
2023-05-13T07:55:50.773Z,995.75
2023-05-13T07:56:50.814Z,995.72
2023-05-13T07:57:50.878Z,995.72
2023-05-13T07:58:50.928Z,995.74
2023-05-13T07:59:50.478Z,995.71
2023-05-13T08:00:51.083Z,995.67
2023-05-13T08:01:51.025Z,995.72
2023-05-13T08:02:51.334Z,995.73
2023-05-13T08:03:50.593Z,995.70
2023-05-13T08:04:51.202Z,995.70
2023-05-13T08:05:50.415Z,995.70
2023-05-13T08:06:51.230Z,995.72
2023-05-13T08:07:50.374Z,995.71
2023-05-13T08:08:51.127Z,995.75
2023-05-13T08:09:51.276Z,995.75
2023-05-13T08:10:51.198Z,995.72
2023-05-13T08:11:50.376Z,995.72
2023-05-13T08:12:50.527Z,995.69
2023-05-13T08:13:50.604Z,995.71
2023-05-13T08:14:51.183Z,995.70
2023-05-13T08:15:50.935Z,995.70
2023-05-13T08:16:51.260Z,995.70
2023-05-13T08:17:51.094Z,995.71
2023-05-13T08:18:51.308Z,995.69
2023-05-13T08:19:51.097Z,995.68
2023-05-13T08:20:50.991Z,995.63
2023-05-13T08:21:50.188Z,995.58
2023-05-13T08:22:51.102Z,995.57
2023-05-13T08:23:50.227Z,995.59
2023-05-13T08:24:50.884Z,995.52
2023-05-13T08:25:51.044Z,995.48
2023-05-13T08:26:51.962Z,995.53
2023-05-13T08:27:50.155Z,995.54
2023-05-13T08:28:54.470Z,995.55
2023-05-13T08:29:50.136Z,995.51
2023-05-13T08:30:50.064Z,995.52
2023-05-13T08:31:50.219Z,995.57
2023-05-13T08:32:50.282Z,995.57
2023-05-13T08:33:50.336Z,995.58
2023-05-13T08:34:50.333Z,995.57
2023-05-13T08:35:50.358Z,995.66
2023-05-13T08:36:50.108Z,995.64
2023-05-13T08:37:50.445Z,995.71
2023-05-13T08:38:50.022Z,995.69
2023-05-13T08:39:50.520Z,995.70
2023-05-13T08:40:50.559Z,995.72
2023-05-13T08:41:50.603Z,995.69
2023-05-13T08:42:50.636Z,995.75
2023-05-13T08:43:50.679Z,995.76
2023-05-13T08:44:50.776Z,995.75
2023-05-13T08:45:50.689Z,995.68
2023-05-13T08:46:50.774Z,995.75
2023-05-13T08:47:50.801Z,995.71
2023-05-13T08:48:50.612Z,995.72
2023-05-13T08:49:50.299Z,995.61
2023-05-13T08:50:50.691Z,995.57
2023-05-13T08:51:49.979Z,995.61
2023-05-13T08:52:50.490Z,995.63
2023-05-13T08:53:50.651Z,995.57
2023-05-13T08:54:50.548Z,995.56
2023-05-13T08:55:49.931Z,995.52
2023-05-13T08:56:49.729Z,995.56
2023-05-13T08:57:50.520Z,995.57
2023-05-13T08:58:50.437Z,995.57
2023-05-13T08:59:50.582Z,995.53
2023-05-13T09:00:50.490Z,995.58
2023-05-13T09:01:50.474Z,995.57
2023-05-13T09:02:50.605Z,995.51
2023-05-13T09:03:49.621Z,995.53
2023-05-13T09:04:50.371Z,995.54
2023-05-13T09:05:50.529Z,995.56
2023-05-13T09:06:49.603Z,995.49
2023-05-13T09:07:49.717Z,995.49
2023-05-13T09:08:49.703Z,995.49
2023-05-13T09:09:49.719Z,995.51
2023-05-13T09:10:49.746Z,995.46
2023-05-13T09:11:49.805Z,995.48
2023-05-13T09:12:49.839Z,995.44
2023-05-13T09:13:49.542Z,995.47
2023-05-13T09:14:49.914Z,995.51
2023-05-13T09:15:49.970Z,995.49
2023-05-13T09:16:49.500Z,995.48
2023-05-13T09:17:50.144Z,995.43
2023-05-13T09:18:50.151Z,995.47
2023-05-13T09:19:50.252Z,995.48
2023-05-13T09:20:50.105Z,995.47
2023-05-13T09:21:50.184Z,995.45
2023-05-13T09:22:50.174Z,995.43
2023-05-13T09:23:50.294Z,995.42
2023-05-13T09:24:50.225Z,995.44
2023-05-13T09:25:50.145Z,995.43
2023-05-13T09:26:49.832Z,995.42
2023-05-13T09:27:50.204Z,995.40
2023-05-13T09:28:50.105Z,995.42
2023-05-13T09:29:50.010Z,995.36
2023-05-13T09:30:50.206Z,995.35
2023-05-13T09:31:50.087Z,995.35
2023-05-13T09:32:50.009Z,995.40
2023-05-13T09:33:50.145Z,995.35
2023-05-13T09:34:50.007Z,995.39
2023-05-13T09:36:10.848Z,995.36
2023-05-13T09:36:51.252Z,995.34
2023-05-13T09:37:49.864Z,995.34
2023-05-13T09:38:49.208Z,995.35
2023-05-13T09:39:50.066Z,995.39
2023-05-13T09:40:49.961Z,995.35
2023-05-13T09:41:49.887Z,995.32
2023-05-13T09:42:50.025Z,995.39
2023-05-13T09:43:49.932Z,995.31
2023-05-13T09:44:49.073Z,995.28
2023-05-13T09:45:49.078Z,995.28
2023-05-13T09:46:49.156Z,995.26
2023-05-13T09:47:49.185Z,995.28
2023-05-13T09:48:49.937Z,995.23
2023-05-13T09:49:49.249Z,995.25
2023-05-13T09:50:49.265Z,995.20
2023-05-13T09:51:49.901Z,995.15
2023-05-13T09:52:49.353Z,995.16
2023-05-13T09:53:49.402Z,995.16
2023-05-13T09:54:49.884Z,995.18
2023-05-13T09:55:49.133Z,995.19
2023-05-13T09:56:49.482Z,995.15
2023-05-13T09:57:49.529Z,995.15
2023-05-13T09:58:49.603Z,995.17
2023-05-13T09:59:49.614Z,995.20
2023-05-13T10:00:49.113Z,995.18
2023-05-13T10:01:49.020Z,995.23
2023-05-13T10:02:49.733Z,995.19
2023-05-13T10:03:49.611Z,995.17
2023-05-13T10:04:49.751Z,995.10
2023-05-13T10:05:49.640Z,995.11
2023-05-13T10:06:49.302Z,995.08
2023-05-13T10:07:48.850Z,995.13
2023-05-13T10:08:49.602Z,995.13
2023-05-13T10:09:49.494Z,995.16
2023-05-13T10:10:49.675Z,995.11
2023-05-13T10:11:49.578Z,995.03
2023-05-13T10:12:48.742Z,995.15
2023-05-13T10:13:49.647Z,995.01
2023-05-13T10:14:48.788Z,994.99
2023-05-13T10:15:49.457Z,995.11
2023-05-13T10:16:49.663Z,995.14
2023-05-13T10:17:49.611Z,995.09
2023-05-13T10:18:48.867Z,995.08
2023-05-13T10:19:49.570Z,995.06
2023-05-13T10:20:49.478Z,995.07
2023-05-13T10:21:49.370Z,995.02
2023-05-13T10:22:49.527Z,994.99
2023-05-13T10:23:48.657Z,995.04
2023-05-13T10:24:48.597Z,994.98
2023-05-13T10:25:49.507Z,995.03
2023-05-13T10:26:48.584Z,995.04
2023-05-13T10:27:48.621Z,995.00
2023-05-13T10:28:48.565Z,995.05
2023-05-13T10:29:48.705Z,994.98
2023-05-13T10:30:48.740Z,995.01
2023-05-13T10:31:48.809Z,995.03
2023-05-13T10:32:48.848Z,994.98
2023-05-13T10:33:48.843Z,995.07
2023-05-13T10:34:48.881Z,995.02
2023-05-13T10:35:48.904Z,995.00
2023-05-13T10:36:48.973Z,994.99
2023-05-13T10:37:48.992Z,994.92
2023-05-13T10:38:49.017Z,994.92
2023-05-13T10:39:49.047Z,994.84
2023-05-13T10:40:48.903Z,994.96
2023-05-13T10:41:49.077Z,994.97
2023-05-13T10:42:49.115Z,995.02
2023-05-13T10:43:48.816Z,995.00
2023-05-13T10:44:49.161Z,994.91
2023-05-13T10:45:49.094Z,994.91
2023-05-13T10:46:49.286Z,995.00
2023-05-13T10:47:49.299Z,994.96
2023-05-13T10:48:48.612Z,994.96
2023-05-13T10:49:48.987Z,994.91
2023-05-13T10:50:48.672Z,994.99
2023-05-13T10:51:48.835Z,994.95
2023-05-13T10:52:48.232Z,994.89
2023-05-13T10:53:48.876Z,994.84
2023-05-13T10:54:49.029Z,994.92
2023-05-13T10:55:48.934Z,994.88
2023-05-13T10:56:48.151Z,994.95
2023-05-13T10:57:48.942Z,994.99
2023-05-13T10:58:48.904Z,995.05
2023-05-13T10:59:49.053Z,995.01
2023-05-13T11:00:48.953Z,994.99
2023-05-13T11:01:48.983Z,994.97
2023-05-13T11:02:48.921Z,994.95
2023-05-13T11:03:49.006Z,994.96
2023-05-13T11:04:48.715Z,995.00
2023-05-13T11:05:48.982Z,994.95
2023-05-13T11:06:48.030Z,994.91
2023-05-13T11:07:48.055Z,994.89
2023-05-13T11:08:48.257Z,994.86
2023-05-13T11:09:48.137Z,994.89
2023-05-13T11:10:48.269Z,994.91
2023-05-13T11:11:48.217Z,994.90
2023-05-13T11:12:48.120Z,994.91
2023-05-13T11:13:48.359Z,994.86
2023-05-13T11:14:48.444Z,994.88
2023-05-13T11:15:48.391Z,994.97
2023-05-13T11:16:52.831Z,994.92
2023-05-13T11:17:48.466Z,995.07
2023-05-13T11:18:48.128Z,994.94
2023-05-13T11:19:48.536Z,995.01
2023-05-13T11:20:52.484Z,995.04
2023-05-13T11:21:48.611Z,994.94
2023-05-13T11:22:48.646Z,994.86
2023-05-13T11:23:47.813Z,994.98
2023-05-13T11:24:48.701Z,994.90
2023-05-13T11:25:48.605Z,994.87
2023-05-13T11:26:48.507Z,994.92
2023-05-13T11:27:48.684Z,994.94
2023-05-13T11:28:48.473Z,994.85
2023-05-13T11:29:47.752Z,994.84
2023-05-13T11:30:48.688Z,994.82
2023-05-13T11:31:48.597Z,994.84
2023-05-13T11:32:48.582Z,994.81
2023-05-13T11:33:48.059Z,994.85
2023-05-13T11:34:48.504Z,994.78
2023-05-13T11:35:47.678Z,994.83
2023-05-13T11:36:48.588Z,994.92
2023-05-13T11:37:48.472Z,994.87
2023-05-13T11:38:48.378Z,994.93
2023-05-13T11:39:48.546Z,994.87
2023-05-13T11:40:48.545Z,994.89
2023-05-13T11:41:47.593Z,994.95
2023-05-13T11:42:48.588Z,994.93
2023-05-13T11:43:47.952Z,994.89
2023-05-13T11:44:48.315Z,994.86
2023-05-13T11:45:48.262Z,994.89
2023-05-13T11:46:47.702Z,994.80
2023-05-13T11:47:47.622Z,994.78
2023-05-13T11:48:47.599Z,994.76
2023-05-13T11:49:47.526Z,994.79
2023-05-13T11:50:47.487Z,994.85
2023-05-13T11:51:47.454Z,994.81
2023-05-13T11:52:47.492Z,994.87
2023-05-13T11:53:47.497Z,994.82
2023-05-13T11:54:47.487Z,994.93
2023-05-13T11:55:47.492Z,994.95
2023-05-13T11:56:47.493Z,994.88
2023-05-13T11:57:47.516Z,994.90
2023-05-13T11:58:48.044Z,994.81
2023-05-13T11:59:48.478Z,994.82
2023-05-13T12:00:47.550Z,994.93
2023-05-13T12:01:47.498Z,994.82
2023-05-13T12:02:47.552Z,994.90
2023-05-13T12:03:47.495Z,994.82
2023-05-13T12:04:47.511Z,994.81
2023-05-13T12:05:47.387Z,994.84
2023-05-13T12:06:47.301Z,994.80
2023-05-13T12:07:47.562Z,994.76
2023-05-13T12:08:47.484Z,994.86
2023-05-13T12:09:47.485Z,994.84
2023-05-13T12:10:47.524Z,994.88
2023-05-13T12:11:47.497Z,994.83
2023-05-13T12:12:47.484Z,994.90
2023-05-13T12:13:47.486Z,994.89
2023-05-13T12:14:47.497Z,994.84
2023-05-13T12:15:47.517Z,994.80
2023-05-13T12:16:47.124Z,994.79
2023-05-13T12:17:47.503Z,994.73
2023-05-13T12:18:47.216Z,994.80
2023-05-13T12:19:47.512Z,994.84
2023-05-13T12:20:47.524Z,994.82
2023-05-13T12:21:47.118Z,994.79
2023-05-13T12:22:47.500Z,994.93
2023-05-13T12:23:47.063Z,994.87
2023-05-13T12:24:47.061Z,994.85
2023-05-13T12:25:47.094Z,994.79
2023-05-13T12:26:47.135Z,994.78
2023-05-13T12:27:47.178Z,994.83
2023-05-13T12:28:47.226Z,994.86